createdAt,value
2023-10-14T00:02:37.362Z,99683.00
2023-10-14T00:05:06.423Z,99685.00
2023-10-14T00:07:33.726Z,99698.00
2023-10-14T00:10:05.279Z,99703.00
2023-10-14T00:12:32.553Z,99710.00
2023-10-14T00:15:05.921Z,99714.00
2023-10-14T00:17:37.882Z,99698.00
2023-10-14T00:20:06.151Z,99711.00
2023-10-14T00:22:34.144Z,99711.00
2023-10-14T00:25:01.649Z,99722.00
2023-10-14T00:27:32.237Z,99737.00
2023-10-14T00:30:12.915Z,99744.00
2023-10-14T00:32:40.467Z,99755.00
2023-10-14T00:35:10.743Z,99780.00
2023-10-14T00:37:38.411Z,99793.00
2023-10-14T00:40:27.103Z,99848.00
2023-10-14T00:43:05.696Z,99876.00
2023-10-14T00:45:33.109Z,99895.00
2023-10-14T00:48:03.498Z,99913.00
2023-10-14T00:50:38.000Z,99904.00
2023-10-14T00:53:07.636Z,99893.00
2023-10-14T00:55:47.593Z,99908.00
2023-10-14T00:58:22.655Z,99881.00
2023-10-14T01:00:59.095Z,99875.00
2023-10-14T01:03:33.421Z,99897.00
2023-10-14T01:06:22.162Z,99898.00
2023-10-14T01:08:55.009Z,99900.00
2023-10-14T01:11:26.423Z,99922.00
2023-10-14T01:14:05.988Z,99916.00
2023-10-14T01:16:34.127Z,99918.00
2023-10-14T01:19:03.962Z,99923.00
2023-10-14T01:21:32.852Z,99922.00
2023-10-14T01:24:00.174Z,99927.00
2023-10-14T01:26:29.154Z,99949.00
2023-10-14T01:29:02.427Z,99950.00
2023-10-14T01:31:39.823Z,99959.00
2023-10-14T01:34:09.425Z,99966.00
2023-10-14T01:36:42.664Z,99965.00
2023-10-14T01:39:22.670Z,99982.00
2023-10-14T01:41:51.009Z,99987.00
2023-10-14T01:44:23.344Z,99978.00
2023-10-14T01:46:52.074Z,99980.00
2023-10-14T01:49:23.588Z,99992.00
2023-10-14T01:51:51.867Z,99991.00
2023-10-14T01:54:19.625Z,99997.00
2023-10-14T01:56:48.076Z,99996.00
2023-10-14T01:59:19.867Z,100012.00
2023-10-14T02:01:49.314Z,100001.00
2023-10-14T02:04:17.220Z,100023.00
2023-10-14T02:06:48.208Z,100028.00
2023-10-14T02:09:18.566Z,100044.00
2023-10-14T02:11:48.876Z,100043.00
2023-10-14T02:14:20.196Z,100051.00
2023-10-14T02:16:47.631Z,100084.00
2023-10-14T02:19:19.191Z,100073.00
2023-10-14T02:21:59.635Z,100091.00
2023-10-14T02:24:29.542Z,100095.00
2023-10-14T02:27:14.069Z,100112.00
2023-10-14T02:29:46.098Z,100124.00
2023-10-14T02:32:14.823Z,100130.00
2023-10-14T02:34:46.281Z,100141.00
2023-10-14T02:37:17.106Z,100135.00
2023-10-14T02:39:45.073Z,100148.00
2023-10-14T02:42:16.381Z,100149.00
2023-10-14T02:44:56.287Z,100170.00
2023-10-14T02:47:28.294Z,100185.00
2023-10-14T02:49:57.936Z,100210.00
2023-10-14T02:52:32.093Z,100220.00
2023-10-14T02:55:18.153Z,100205.00
2023-10-14T02:57:48.423Z,100221.00
2023-10-14T03:00:25.370Z,100215.00
2023-10-14T03:03:05.081Z,100232.00
2023-10-14T03:05:35.879Z,100237.00
2023-10-14T03:08:14.237Z,100241.00
2023-10-14T03:10:41.585Z,100251.00
2023-10-14T03:13:16.076Z,100272.00
2023-10-14T03:15:49.299Z,100271.00
2023-10-14T03:18:19.792Z,100279.00
2023-10-14T03:20:54.100Z,100275.00
2023-10-14T03:23:24.257Z,100285.00
2023-10-14T03:25:55.096Z,100288.00
2023-10-14T03:28:28.360Z,100298.00
2023-10-14T03:30:58.249Z,100314.00
2023-10-14T03:33:31.620Z,100310.00
2023-10-14T03:36:04.421Z,100341.00
2023-10-14T03:38:36.729Z,100330.00
2023-10-14T03:41:12.905Z,100338.00
2023-10-14T03:43:59.759Z,100362.00
2023-10-14T03:46:34.622Z,100364.00
2023-10-14T03:49:11.563Z,100359.00
2023-10-14T03:51:41.350Z,100365.00
2023-10-14T03:54:10.740Z,100359.00
2023-10-14T03:56:45.080Z,100376.00
2023-10-14T03:59:20.301Z,100393.00
2023-10-14T04:01:47.901Z,100404.00
2023-10-14T04:04:25.720Z,100396.00
2023-10-14T04:07:01.845Z,100411.00
2023-10-14T04:09:39.371Z,100416.00
2023-10-14T04:12:11.124Z,100425.00
2023-10-14T04:14:40.047Z,100427.00
2023-10-14T04:17:19.910Z,100437.00
2023-10-14T04:20:10.809Z,100455.00
2023-10-14T04:22:39.220Z,100454.00
2023-10-14T04:25:23.145Z,100459.00
2023-10-14T04:27:52.777Z,100461.00
2023-10-14T04:30:31.519Z,100473.00
2023-10-14T04:33:03.606Z,100462.00
2023-10-14T04:35:38.312Z,100485.00
2023-10-14T04:38:18.710Z,100493.00
2023-10-14T04:40:55.008Z,100501.00
2023-10-14T04:43:43.355Z,100505.00
2023-10-14T04:46:18.168Z,100508.00
2023-10-14T04:49:01.472Z,100501.00
2023-10-14T04:52:01.120Z,100511.00
2023-10-14T04:54:28.447Z,100520.00
2023-10-14T04:57:01.997Z,100516.00
2023-10-14T04:59:30.013Z,100537.00
2023-10-14T05:01:57.784Z,100538.00
2023-10-14T05:04:30.865Z,100558.00
2023-10-14T05:07:05.703Z,100555.00
2023-10-14T05:09:40.801Z,100552.00
2023-10-14T05:12:18.724Z,100571.00
2023-10-14T05:14:45.972Z,100581.00
2023-10-14T05:17:13.123Z,100576.00
2023-10-14T05:19:43.514Z,100594.00
2023-10-14T05:22:25.659Z,100599.00
2023-10-14T05:24:57.291Z,100603.00
2023-10-14T05:27:37.076Z,100594.00
2023-10-14T05:30:08.933Z,100606.00
2023-10-14T05:32:37.691Z,100614.00
2023-10-14T05:35:11.275Z,100606.00
2023-10-14T05:37:42.978Z,100624.00
2023-10-14T05:40:17.449Z,100626.00
2023-10-14T05:42:45.253Z,100642.00
2023-10-14T05:45:13.269Z,100628.00
2023-10-14T05:47:43.730Z,100644.00
2023-10-14T05:50:20.439Z,100641.00
2023-10-14T05:52:48.096Z,100648.00
2023-10-14T05:55:21.449Z,100652.00
2023-10-14T05:57:51.290Z,100655.00
2023-10-14T06:00:22.579Z,100641.00
2023-10-14T06:02:54.604Z,100668.00
2023-10-14T06:05:32.837Z,100676.00
2023-10-14T06:08:07.481Z,100675.00
2023-10-14T06:10:38.374Z,100676.00
2023-10-14T06:13:10.265Z,100682.00
2023-10-14T06:15:43.496Z,100686.00
2023-10-14T06:18:15.416Z,100701.00
2023-10-14T06:20:43.834Z,100702.00
2023-10-14T06:23:12.156Z,100703.00
2023-10-14T06:25:40.182Z,100712.00
2023-10-14T06:28:09.003Z,100702.00
2023-10-14T06:30:36.432Z,100725.00
2023-10-14T06:33:06.712Z,100724.00
2023-10-14T06:35:36.218Z,100736.00
2023-10-14T06:38:05.798Z,100737.00
2023-10-14T06:40:39.441Z,100749.00
2023-10-14T06:43:15.004Z,100762.00
2023-10-14T06:45:43.085Z,100759.00
2023-10-14T06:48:13.061Z,100765.00
2023-10-14T06:50:43.566Z,100777.00
2023-10-14T06:53:12.289Z,100783.00
2023-10-14T06:55:41.244Z,100782.00
2023-10-14T06:58:20.464Z,100792.00
2023-10-14T07:00:49.848Z,100787.00
2023-10-14T07:03:18.475Z,100788.00
2023-10-14T07:05:49.972Z,100793.00
2023-10-14T07:08:21.301Z,100788.00
2023-10-14T07:10:51.602Z,100787.00
2023-10-14T07:13:23.475Z,100811.00
2023-10-14T07:15:52.706Z,100819.00
2023-10-14T07:18:24.697Z,100809.00
2023-10-14T07:21:02.836Z,100804.00
2023-10-14T07:23:35.516Z,100822.00
2023-10-14T07:26:14.736Z,100826.00
2023-10-14T07:28:52.991Z,100833.00
2023-10-14T07:31:21.273Z,100829.00
2023-10-14T07:33:49.171Z,100820.00
2023-10-14T07:36:16.917Z,100829.00
2023-10-14T07:38:45.545Z,100828.00
2023-10-14T07:41:15.577Z,100844.00
2023-10-14T07:43:43.020Z,100855.00
2023-10-14T07:46:11.282Z,100860.00
2023-10-14T07:48:40.125Z,100860.00
2023-10-14T07:51:22.900Z,100870.00
2023-10-14T07:53:57.407Z,100870.00
2023-10-14T07:56:25.057Z,100877.00
2023-10-14T07:58:54.526Z,100867.00
2023-10-14T08:01:24.897Z,100883.00
2023-10-14T08:03:58.537Z,100884.00
2023-10-14T08:06:27.719Z,100882.00
2023-10-14T08:08:55.072Z,100891.00
2023-10-14T08:11:23.493Z,100895.00
2023-10-14T08:13:50.921Z,100899.00
2023-10-14T08:16:18.538Z,100896.00
2023-10-14T08:18:46.402Z,100904.00
2023-10-14T08:21:13.838Z,100906.00
2023-10-14T08:23:41.067Z,100908.00
2023-10-14T08:26:15.085Z,100914.00
2023-10-14T08:28:43.968Z,100931.00
2023-10-14T08:31:13.584Z,100927.00
2023-10-14T08:33:44.055Z,100932.00
2023-10-14T08:36:13.124Z,100933.00
2023-10-14T08:38:40.592Z,100936.00
2023-10-14T08:41:08.348Z,100936.00
2023-10-14T08:43:40.169Z,100953.00
2023-10-14T08:46:10.421Z,100951.00
2023-10-14T08:48:39.945Z,100951.00
2023-10-14T08:51:09.629Z,100952.00
2023-10-14T08:53:41.645Z,100956.00
2023-10-14T08:56:10.623Z,100955.00
2023-10-14T08:58:41.266Z,100961.00
2023-10-14T09:01:17.350Z,100955.00
2023-10-14T09:03:51.160Z,100953.00
2023-10-14T09:06:20.674Z,100969.00
2023-10-14T09:09:19.422Z,100962.00
2023-10-14T09:12:12.268Z,100973.00
2023-10-14T09:14:41.462Z,100978.00
2023-10-14T09:17:09.956Z,100966.00
2023-10-14T09:19:45.757Z,100983.00
2023-10-14T09:22:35.541Z,100976.00
2023-10-14T09:25:05.370Z,100981.00
2023-10-14T09:27:33.220Z,100980.00
2023-10-14T09:30:00.906Z,100981.00
2023-10-14T09:32:28.934Z,100967.00
2023-10-14T09:34:56.907Z,100992.00
2023-10-14T09:37:24.712Z,100977.00
2023-10-14T09:40:02.640Z,100983.00
2023-10-14T09:42:34.299Z,100980.00
2023-10-14T09:45:12.287Z,100993.00
2023-10-14T09:47:47.511Z,100985.00
2023-10-14T09:50:16.764Z,100988.00
2023-10-14T09:52:46.074Z,100983.00
2023-10-14T09:55:17.747Z,100982.00
2023-10-14T09:57:46.926Z,100989.00
2023-10-14T10:00:18.104Z,100989.00
2023-10-14T10:02:51.307Z,101001.00
2023-10-14T10:05:30.036Z,100997.00
2023-10-14T10:08:19.559Z,100992.00
2023-10-14T10:10:50.722Z,101007.00
2023-10-14T10:13:19.125Z,101003.00
2023-10-14T10:15:47.737Z,101005.00
2023-10-14T10:18:17.593Z,101006.00
2023-10-14T10:20:58.477Z,101009.00
2023-10-14T10:23:26.211Z,101012.00
2023-10-14T10:25:53.906Z,101011.00
2023-10-14T10:28:30.097Z,101014.00
2023-10-14T10:31:06.453Z,100999.00
2023-10-14T10:33:56.042Z,101016.00
2023-10-14T10:36:31.644Z,101007.00
2023-10-14T10:39:18.918Z,101009.00
2023-10-14T10:41:55.396Z,101023.00
2023-10-14T10:44:26.079Z,101023.00
2023-10-14T10:46:58.593Z,101015.00
2023-10-14T10:50:00.813Z,101037.00
2023-10-14T10:52:31.682Z,101039.00
2023-10-14T10:55:00.018Z,101034.00
2023-10-14T10:57:27.840Z,101035.00
2023-10-14T10:59:56.787Z,101046.00
2023-10-14T11:02:24.306Z,101050.00
2023-10-14T11:04:53.025Z,101050.00
2023-10-14T11:07:24.367Z,101046.00
2023-10-14T11:09:52.448Z,101040.00
2023-10-14T11:12:20.123Z,101036.00
2023-10-14T11:14:50.188Z,101032.00
2023-10-14T11:17:17.937Z,101027.00
2023-10-14T11:19:45.735Z,101058.00
2023-10-14T11:22:13.374Z,101041.00
2023-10-14T11:24:43.754Z,101045.00
2023-10-14T11:27:14.483Z,101056.00
2023-10-14T11:29:42.615Z,101056.00
2023-10-14T11:32:14.409Z,101066.00
2023-10-14T11:34:48.819Z,101051.00
2023-10-14T11:37:17.624Z,101066.00
2023-10-14T11:39:45.187Z,101072.00
2023-10-14T11:42:16.680Z,101064.00
2023-10-14T11:44:43.914Z,101061.00
2023-10-14T11:47:18.659Z,101069.00
2023-10-14T11:49:49.378Z,101062.00
2023-10-14T11:52:16.799Z,101055.00
2023-10-14T11:54:44.223Z,101063.00
2023-10-14T11:57:12.919Z,101066.00
2023-10-14T11:59:40.447Z,101061.00
2023-10-14T12:02:08.100Z,101059.00
2023-10-14T12:04:36.069Z,101065.00
2023-10-14T12:07:06.134Z,101077.00
2023-10-14T12:09:33.685Z,101092.00
2023-10-14T12:12:01.289Z,101075.00
2023-10-14T12:14:28.641Z,101093.00
2023-10-14T12:16:56.461Z,101088.00
2023-10-14T12:19:24.404Z,101075.00
2023-10-14T12:21:52.197Z,101069.00
2023-10-14T12:24:19.636Z,101075.00
2023-10-14T12:26:47.280Z,101071.00
2023-10-14T12:29:14.635Z,101076.00
2023-10-14T12:31:47.156Z,101064.00
2023-10-14T12:34:16.526Z,101064.00
2023-10-14T12:36:46.702Z,101074.00
2023-10-14T12:39:31.419Z,101088.00
2023-10-14T12:42:04.832Z,101096.00
2023-10-14T12:44:34.873Z,101096.00
2023-10-14T12:47:15.711Z,101093.00
2023-10-14T12:49:44.001Z,101103.00
2023-10-14T12:52:14.292Z,101112.00
2023-10-14T12:54:42.231Z,101105.00
2023-10-14T12:57:09.659Z,101118.00
2023-10-14T12:59:41.827Z,101120.00
2023-10-14T13:02:10.539Z,101123.00
2023-10-14T13:04:43.339Z,101116.00
2023-10-14T13:07:11.103Z,101119.00
2023-10-14T13:09:40.319Z,101118.00
2023-10-14T13:12:17.388Z,101102.00
2023-10-14T13:14:46.876Z,101123.00
2023-10-14T13:17:14.570Z,101124.00
2023-10-14T13:19:42.950Z,101129.00
2023-10-14T13:22:15.279Z,101119.00
2023-10-14T13:24:43.317Z,101125.00
2023-10-14T13:27:12.765Z,101139.00
2023-10-14T13:29:42.745Z,101115.00
2023-10-14T13:32:15.841Z,101137.00
2023-10-14T13:34:43.389Z,101150.00
2023-10-14T13:37:10.786Z,101149.00
2023-10-14T13:39:38.622Z,101153.00
2023-10-14T13:42:09.656Z,101151.00
2023-10-14T13:44:38.529Z,101145.00
2023-10-14T13:47:06.951Z,101158.00
2023-10-14T13:49:35.229Z,101152.00
2023-10-14T13:52:05.329Z,101154.00
2023-10-14T13:54:33.867Z,101161.00
2023-10-14T13:57:01.779Z,101159.00
2023-10-14T13:59:29.061Z,101164.00
2023-10-14T14:01:56.602Z,101155.00
2023-10-14T14:04:24.121Z,101172.00
2023-10-14T14:06:54.006Z,101201.00
2023-10-14T14:09:24.762Z,101195.00
2023-10-14T14:11:57.609Z,101196.00
2023-10-14T14:14:26.698Z,101195.00
2023-10-14T14:16:54.349Z,101190.00
2023-10-14T14:19:24.563Z,101195.00
2023-10-14T14:21:53.052Z,101202.00
2023-10-14T14:24:23.729Z,101190.00
2023-10-14T14:26:52.942Z,101204.00
2023-10-14T14:29:20.310Z,101205.00
2023-10-14T14:31:48.447Z,101201.00
2023-10-14T14:34:16.192Z,101195.00
2023-10-14T14:36:46.713Z,101200.00
2023-10-14T14:39:17.310Z,101187.00
2023-10-14T14:41:46.061Z,101194.00
2023-10-14T14:44:15.217Z,101199.00
2023-10-14T14:46:43.413Z,101202.00
2023-10-14T14:49:14.313Z,101200.00
2023-10-14T14:51:48.585Z,101205.00
2023-10-14T14:54:16.694Z,101222.00
2023-10-14T14:56:46.074Z,101216.00
2023-10-14T14:59:21.089Z,101226.00
2023-10-14T15:01:48.388Z,101236.00
2023-10-14T15:04:15.838Z,101240.00
2023-10-14T15:06:43.529Z,101265.00
2023-10-14T15:09:16.465Z,101262.00
2023-10-14T15:11:45.838Z,101251.00
2023-10-14T15:14:17.331Z,101259.00
2023-10-14T15:16:45.316Z,101256.00
2023-10-14T15:19:17.411Z,101261.00
2023-10-14T15:21:50.161Z,101245.00
2023-10-14T15:24:19.423Z,101252.00
2023-10-14T15:26:48.944Z,101253.00
2023-10-14T15:29:16.984Z,101255.00
2023-10-14T15:31:46.956Z,101255.00
2023-10-14T15:34:15.224Z,101265.00
2023-10-14T15:36:45.391Z,101249.00
2023-10-14T15:39:17.167Z,101251.00
2023-10-14T15:41:44.837Z,101257.00
2023-10-14T15:44:14.688Z,101259.00
2023-10-14T15:46:42.633Z,101270.00
2023-10-14T15:49:10.966Z,101266.00
2023-10-14T15:51:39.779Z,101270.00
2023-10-14T15:54:07.559Z,101273.00
2023-10-14T15:56:35.165Z,101288.00
2023-10-14T15:59:03.799Z,101279.00
2023-10-14T16:01:34.844Z,101279.00
2023-10-14T16:04:06.285Z,101276.00
2023-10-14T16:06:34.108Z,101293.00
2023-10-14T16:09:01.453Z,101291.00
2023-10-14T16:11:30.288Z,101290.00
2023-10-14T16:14:01.384Z,101286.00
2023-10-14T16:16:29.822Z,101296.00
2023-10-14T16:18:57.297Z,101288.00
2023-10-14T16:21:24.596Z,101303.00
2023-10-14T16:23:52.400Z,101310.00
2023-10-14T16:26:20.014Z,101308.00
2023-10-14T16:28:49.844Z,101306.00
2023-10-14T16:31:18.566Z,101315.00
2023-10-14T16:33:46.628Z,101319.00
2023-10-14T16:36:17.657Z,101306.00
2023-10-14T16:38:45.111Z,101324.00
2023-10-14T16:41:13.128Z,101325.00
2023-10-14T16:43:40.759Z,101338.00
2023-10-14T16:46:11.790Z,101340.00
2023-10-14T16:48:39.285Z,101343.00
2023-10-14T16:51:06.609Z,101345.00
2023-10-14T16:53:36.033Z,101350.00
2023-10-14T16:56:03.657Z,101352.00
2023-10-14T16:58:31.172Z,101351.00
2023-10-14T17:00:58.465Z,101368.00
2023-10-14T17:03:26.638Z,101383.00
2023-10-14T17:05:57.207Z,101375.00
2023-10-14T17:08:26.485Z,101365.00
2023-10-14T17:10:55.161Z,101378.00
2023-10-14T17:13:24.015Z,101393.00
2023-10-14T17:15:51.756Z,101400.00
2023-10-14T17:18:19.109Z,101398.00
2023-10-14T17:20:46.489Z,101411.00
2023-10-14T17:23:14.765Z,101415.00
2023-10-14T17:25:43.051Z,101407.00
2023-10-14T17:28:13.963Z,101422.00
2023-10-14T17:30:41.813Z,101420.00
2023-10-14T17:33:09.539Z,101420.00
2023-10-14T17:35:39.706Z,101432.00
2023-10-14T17:38:08.546Z,101427.00
2023-10-14T17:40:42.199Z,101445.00
2023-10-14T17:43:12.344Z,101443.00
2023-10-14T17:45:42.419Z,101448.00
2023-10-14T17:48:10.918Z,101457.00
2023-10-14T17:50:43.646Z,101440.00
2023-10-14T17:53:14.868Z,101452.00
2023-10-14T17:55:48.983Z,101462.00
2023-10-14T17:58:19.483Z,101446.00
2023-10-14T18:00:47.129Z,101451.00
2023-10-14T18:03:14.880Z,101437.00
2023-10-14T18:06:05.089Z,101454.00
2023-10-14T18:08:32.960Z,101458.00
2023-10-14T18:11:08.154Z,101463.00
2023-10-14T18:13:37.371Z,101457.00
2023-10-14T18:16:13.243Z,101470.00
2023-10-14T18:18:41.503Z,101455.00
2023-10-14T18:21:19.727Z,101467.00
2023-10-14T18:23:48.268Z,101453.00
2023-10-14T18:26:16.017Z,101480.00
2023-10-14T18:28:44.773Z,101469.00
2023-10-14T18:31:12.413Z,101483.00
2023-10-14T18:33:40.117Z,101481.00
2023-10-14T18:36:11.615Z,101484.00
2023-10-14T18:38:41.005Z,101482.00
2023-10-14T18:41:19.819Z,101489.00
2023-10-14T18:43:47.863Z,101479.00
2023-10-14T18:46:20.224Z,101496.00
2023-10-14T18:48:48.062Z,101479.00
2023-10-14T18:51:23.167Z,101494.00
2023-10-14T18:53:51.667Z,101484.00
2023-10-14T18:56:22.449Z,101503.00
2023-10-14T18:58:57.384Z,101491.00
2023-10-14T19:01:27.069Z,101502.00
2023-10-14T19:03:58.940Z,101504.00
2023-10-14T19:06:28.154Z,101493.00
2023-10-14T19:08:56.971Z,101497.00
2023-10-14T19:11:27.385Z,101508.00
2023-10-14T19:13:54.868Z,101500.00
2023-10-14T19:16:22.206Z,101509.00
2023-10-14T19:18:49.838Z,101495.00
2023-10-14T19:21:17.301Z,101507.00
2023-10-14T19:23:44.798Z,101492.00
2023-10-14T19:26:14.169Z,101506.00
2023-10-14T19:28:41.987Z,101506.00
2023-10-14T19:31:14.208Z,101501.00
2023-10-14T19:33:41.903Z,101499.00
2023-10-14T19:36:10.066Z,101508.00
2023-10-14T19:38:38.703Z,101513.00
2023-10-14T19:41:09.572Z,101514.00
2023-10-14T19:43:37.272Z,101498.00
2023-10-14T19:46:11.883Z,101498.00
2023-10-14T19:48:41.647Z,101525.00
2023-10-14T19:51:15.304Z,101523.00
2023-10-14T19:53:44.414Z,101512.00
2023-10-14T19:56:14.038Z,101528.00
2023-10-14T19:58:44.710Z,101519.00
2023-10-14T20:01:18.242Z,101535.00
2023-10-14T20:03:47.442Z,101530.00
2023-10-14T20:06:23.761Z,101544.00
2023-10-14T20:08:52.293Z,101552.00
2023-10-14T20:11:20.165Z,101538.00
2023-10-14T20:13:48.021Z,101536.00
2023-10-14T20:16:17.741Z,101544.00
2023-10-14T20:18:45.798Z,101562.00
2023-10-14T20:21:16.783Z,101559.00
2023-10-14T20:23:45.071Z,101557.00
2023-10-14T20:26:14.309Z,101552.00
2023-10-14T20:28:45.822Z,101562.00
2023-10-14T20:31:14.627Z,101567.00
2023-10-14T20:33:42.519Z,101568.00
2023-10-14T20:36:10.111Z,101568.00
2023-10-14T20:38:37.581Z,101566.00
2023-10-14T20:41:09.273Z,101554.00
2023-10-14T20:43:37.165Z,101563.00
2023-10-14T20:46:10.747Z,101565.00
2023-10-14T20:48:41.403Z,101546.00
2023-10-14T20:51:13.070Z,101567.00
2023-10-14T20:53:40.679Z,101568.00
2023-10-14T20:56:12.465Z,101566.00
2023-10-14T20:58:40.217Z,101567.00
2023-10-14T21:01:16.087Z,101567.00
2023-10-14T21:03:44.538Z,101565.00
2023-10-14T21:06:13.180Z,101567.00
2023-10-14T21:08:40.885Z,101563.00
2023-10-14T21:11:14.111Z,101577.00
2023-10-14T21:13:43.487Z,101568.00
2023-10-14T21:16:34.775Z,101575.00
2023-10-14T21:19:02.661Z,101562.00
2023-10-14T21:21:31.360Z,101580.00
2023-10-14T21:23:59.172Z,101576.00
2023-10-14T21:26:27.328Z,101560.00
2023-10-14T21:28:54.778Z,101565.00
2023-10-14T21:31:23.502Z,101580.00
2023-10-14T21:33:53.938Z,101561.00
2023-10-14T21:36:22.143Z,101566.00
2023-10-14T21:38:50.257Z,101566.00
2023-10-14T21:41:18.210Z,101564.00
2023-10-14T21:43:49.909Z,101552.00
2023-10-14T21:46:19.084Z,101569.00
2023-10-14T21:48:48.098Z,101565.00
2023-10-14T21:51:16.627Z,101562.00
2023-10-14T21:53:44.148Z,101555.00
2023-10-14T21:56:11.594Z,101542.00
2023-10-14T21:58:41.458Z,101551.00
2023-10-14T22:01:27.860Z,101556.00
2023-10-14T22:03:55.309Z,101551.00
2023-10-14T22:06:23.517Z,101537.00
2023-10-14T22:08:51.201Z,101527.00
2023-10-14T22:11:20.142Z,101524.00
2023-10-14T22:13:50.610Z,101534.00
2023-10-14T22:16:18.790Z,101541.00
2023-10-14T22:18:52.300Z,101521.00
2023-10-14T22:21:20.266Z,101545.00
2023-10-14T22:23:47.643Z,101545.00
2023-10-14T22:26:15.175Z,101549.00
2023-10-14T22:28:42.409Z,101534.00
2023-10-14T22:31:12.032Z,101551.00
2023-10-14T22:33:42.892Z,101549.00
2023-10-14T22:36:16.770Z,101515.00
2023-10-14T22:38:45.153Z,101537.00
2023-10-14T22:41:12.893Z,101532.00
2023-10-14T22:43:43.841Z,101525.00
2023-10-14T22:46:16.148Z,101540.00
2023-10-14T22:48:44.426Z,101545.00
2023-10-14T22:51:13.563Z,101545.00
2023-10-14T22:53:41.198Z,101528.00
2023-10-14T22:56:08.482Z,101536.00
2023-10-14T22:58:36.113Z,101546.00
2023-10-14T23:01:03.774Z,101534.00
2023-10-14T23:03:31.175Z,101539.00
2023-10-14T23:05:58.470Z,101541.00
2023-10-14T23:08:25.705Z,101545.00
2023-10-14T23:10:56.208Z,101549.00
2023-10-14T23:13:26.449Z,101532.00
2023-10-14T23:15:53.740Z,101543.00
2023-10-14T23:18:21.186Z,101540.00
2023-10-14T23:20:49.499Z,101540.00
2023-10-14T23:23:19.347Z,101534.00
2023-10-14T23:25:46.628Z,101531.00
2023-10-14T23:28:13.935Z,101543.00
2023-10-14T23:30:41.544Z,101537.00
2023-10-14T23:33:09.334Z,101522.00
2023-10-14T23:35:36.642Z,101528.00
2023-10-14T23:38:07.629Z,101531.00
2023-10-14T23:40:39.380Z,101540.00
2023-10-14T23:43:10.138Z,101540.00
2023-10-14T23:45:37.955Z,101538.00
2023-10-14T23:48:06.050Z,101538.00
2023-10-14T23:50:38.070Z,101538.00
2023-10-14T23:53:10.139Z,101524.00
2023-10-14T23:55:38.056Z,101531.00
2023-10-14T23:58:06.057Z,101517.00
